createdAt,value
2018-12-20T00:00:43.488Z,80.25
2018-12-20T00:03:12.176Z,80.39
2018-12-20T00:05:40.800Z,79.76
2018-12-20T00:08:09.412Z,80.43
2018-12-20T00:10:38.214Z,80.27
2018-12-20T00:13:07.447Z,80.32
2018-12-20T00:15:35.941Z,80.79
2018-12-20T00:18:04.543Z,80.35
2018-12-20T00:20:33.216Z,80.48
2018-12-20T00:23:01.882Z,80.44
2018-12-20T00:25:30.637Z,80.54
2018-12-20T00:27:59.258Z,80.46
2018-12-20T00:30:27.887Z,80.21
2018-12-20T00:32:56.533Z,80.62
2018-12-20T00:35:25.170Z,80.78
2018-12-20T00:37:53.773Z,80.82
2018-12-20T00:40:22.284Z,80.92
2018-12-20T00:42:50.833Z,80.54
2018-12-20T00:45:19.453Z,81.19
2018-12-20T00:47:48.058Z,81.16
2018-12-20T00:50:16.726Z,80.40
2018-12-20T00:52:45.435Z,80.45
2018-12-20T00:55:14.180Z,80.35
2018-12-20T00:57:42.798Z,80.34
2018-12-20T01:00:12.009Z,80.43
2018-12-20T01:02:40.656Z,80.84
2018-12-20T01:05:09.163Z,80.82
2018-12-20T01:07:37.670Z,80.59
2018-12-20T01:10:07.168Z,80.48
2018-12-20T01:12:36.045Z,80.82
2018-12-20T01:15:05.714Z,80.59
2018-12-20T01:17:39.767Z,80.80
2018-12-20T01:20:10.867Z,80.81
2018-12-20T01:22:39.497Z,80.79
2018-12-20T01:25:08.126Z,80.40
2018-12-20T01:27:36.707Z,80.95
2018-12-20T01:30:07.251Z,80.96
2018-12-20T01:32:35.825Z,81.55
2018-12-20T01:35:04.580Z,81.54
2018-12-20T01:37:33.214Z,81.61
2018-12-20T01:40:01.686Z,81.98
2018-12-20T01:42:30.181Z,81.47
2018-12-20T01:44:58.790Z,81.48
2018-12-20T01:47:27.634Z,81.24
2018-12-20T01:49:56.654Z,81.67
2018-12-20T01:52:25.360Z,81.33
2018-12-20T01:54:54.618Z,81.70
2018-12-20T01:57:23.927Z,81.36
2018-12-20T01:59:53.346Z,80.95
2018-12-20T02:02:22.234Z,80.97
2018-12-20T02:04:50.971Z,81.41
2018-12-20T02:07:19.546Z,81.35
2018-12-20T02:09:48.448Z,80.97
2018-12-20T02:12:16.983Z,81.13
2018-12-20T02:14:45.611Z,81.43
2018-12-20T02:17:14.263Z,81.42
2018-12-20T02:19:42.819Z,81.20
2018-12-20T02:22:11.441Z,80.57
2018-12-20T02:24:39.995Z,81.21
2018-12-20T02:27:08.716Z,80.89
2018-12-20T02:29:38.107Z,81.38
2018-12-20T02:32:06.861Z,81.45
2018-12-20T02:34:35.425Z,81.22
2018-12-20T02:37:04.028Z,80.92
2018-12-20T02:39:32.618Z,81.10
2018-12-20T02:42:01.131Z,81.66
2018-12-20T02:44:29.745Z,81.72
2018-12-20T02:46:58.302Z,81.93
2018-12-20T02:49:26.780Z,81.08
2018-12-20T02:51:55.250Z,80.81
2018-12-20T02:54:23.890Z,80.88
2018-12-20T02:56:52.626Z,81.81
2018-12-20T02:59:21.152Z,81.80
2018-12-20T03:01:49.813Z,81.41
2018-12-20T03:04:18.327Z,81.20
2018-12-20T03:06:46.859Z,81.66
2018-12-20T03:09:15.536Z,81.19
2018-12-20T03:11:44.089Z,81.53
2018-12-20T03:14:12.680Z,81.38
2018-12-20T03:16:41.264Z,80.94
2018-12-20T03:19:10.473Z,81.25
2018-12-20T03:21:39.755Z,81.89
2018-12-20T03:24:08.312Z,82.20
2018-12-20T03:26:37.159Z,81.57
2018-12-20T03:29:06.077Z,81.48
2018-12-20T03:31:34.914Z,82.00
2018-12-20T03:34:03.532Z,81.87
2018-12-20T03:36:32.018Z,81.79
2018-12-20T03:39:00.489Z,82.04
2018-12-20T03:41:29.280Z,82.32
2018-12-20T03:43:57.826Z,82.02
2018-12-20T03:46:26.391Z,82.17
2018-12-20T03:48:55.218Z,82.52
2018-12-20T03:51:24.644Z,82.41
2018-12-20T03:53:54.174Z,82.54
2018-12-20T03:56:23.005Z,82.14
2018-12-20T03:58:51.691Z,82.51
2018-12-20T04:01:20.263Z,82.31
2018-12-20T04:03:49.521Z,82.30
2018-12-20T04:06:18.161Z,82.30
2018-12-20T04:08:46.641Z,82.34
2018-12-20T04:11:15.257Z,81.79
2018-12-20T04:13:44.139Z,81.75
2018-12-20T04:16:12.984Z,81.61
2018-12-20T04:18:41.492Z,81.87
2018-12-20T04:21:10.447Z,82.30
2018-12-20T04:23:39.107Z,81.69
2018-12-20T04:26:07.821Z,81.87
2018-12-20T04:28:36.395Z,82.04
2018-12-20T04:31:05.566Z,81.96
2018-12-20T04:33:34.154Z,82.35
2018-12-20T04:36:02.732Z,81.97
2018-12-20T04:38:31.441Z,81.90
2018-12-20T04:41:00.089Z,81.76
2018-12-20T04:43:29.270Z,82.24
2018-12-20T04:45:57.974Z,81.46
2018-12-20T04:48:26.665Z,82.14
2018-12-20T04:50:55.330Z,81.56
2018-12-20T04:53:24.805Z,81.94
2018-12-20T04:55:53.506Z,81.89
2018-12-20T04:58:22.769Z,81.66
2018-12-20T05:00:51.497Z,82.03
2018-12-20T05:03:20.002Z,81.61
2018-12-20T05:05:48.852Z,81.93
2018-12-20T05:08:17.483Z,81.55
2018-12-20T05:10:46.136Z,82.02
2018-12-20T05:13:15.030Z,81.72
2018-12-20T05:15:43.795Z,82.03
2018-12-20T05:18:12.447Z,81.70
2018-12-20T05:20:41.216Z,81.48
2018-12-20T05:23:09.933Z,81.52
2018-12-20T05:25:38.619Z,81.59
2018-12-20T05:28:07.368Z,81.47
2018-12-20T05:30:35.963Z,81.69
2018-12-20T05:33:04.506Z,81.63
2018-12-20T05:35:33.100Z,81.95
2018-12-20T05:38:01.697Z,81.88
2018-12-20T05:40:30.287Z,81.55
2018-12-20T05:42:58.836Z,81.75
2018-12-20T05:45:27.837Z,82.17
2018-12-20T05:47:56.675Z,82.33
2018-12-20T05:50:25.480Z,81.57
2018-12-20T05:52:54.400Z,82.12
2018-12-20T05:55:25.419Z,82.24
2018-12-20T05:57:57.055Z,82.60
2018-12-20T06:00:26.871Z,82.33
2018-12-20T06:02:56.922Z,81.91
2018-12-20T06:05:25.897Z,81.92
2018-12-20T06:07:54.718Z,82.09
2018-12-20T06:10:24.039Z,82.11
2018-12-20T06:12:52.978Z,82.08
2018-12-20T06:15:21.833Z,81.60
2018-12-20T06:17:50.926Z,81.56
2018-12-20T06:20:19.745Z,81.84
2018-12-20T06:22:48.605Z,82.19
2018-12-20T06:25:17.235Z,81.88
2018-12-20T06:27:46.376Z,82.21
2018-12-20T06:30:15.339Z,81.94
2018-12-20T06:32:43.989Z,82.04
2018-12-20T06:35:12.861Z,81.58
2018-12-20T06:37:41.580Z,81.74
2018-12-20T06:40:10.215Z,81.29
2018-12-20T06:42:38.881Z,82.14
2018-12-20T06:45:07.551Z,81.87
2018-12-20T06:47:36.386Z,81.25
2018-12-20T06:50:05.301Z,81.59
2018-12-20T06:52:34.187Z,81.19
2018-12-20T06:55:03.229Z,80.98
2018-12-20T06:57:31.826Z,81.52
2018-12-20T07:00:00.427Z,81.01
2018-12-20T07:02:28.879Z,81.16
2018-12-20T07:04:57.478Z,81.28
2018-12-20T07:07:26.385Z,81.77
2018-12-20T07:09:54.923Z,81.52
2018-12-20T07:12:23.490Z,80.93
2018-12-20T07:14:51.986Z,81.50
2018-12-20T07:17:20.479Z,80.79
2018-12-20T07:19:48.971Z,80.38
2018-12-20T07:22:18.087Z,80.45
2018-12-20T07:24:46.681Z,80.28
2018-12-20T07:27:15.150Z,80.22
2018-12-20T07:29:43.714Z,79.94
2018-12-20T07:32:12.594Z,80.07
2018-12-20T07:34:47.741Z,80.50
2018-12-20T07:37:11.702Z,80.72
2018-12-20T07:39:40.217Z,80.51
2018-12-20T07:42:08.798Z,79.78
2018-12-20T07:44:37.660Z,79.86
2018-12-20T07:47:06.394Z,79.92
2018-12-20T07:49:34.991Z,78.33
2018-12-20T07:52:04.004Z,78.65
2018-12-20T07:54:32.720Z,78.70
2018-12-20T07:57:01.667Z,78.03
2018-12-20T07:59:30.172Z,77.96
2018-12-20T08:01:58.645Z,77.72
2018-12-20T08:04:27.151Z,78.54
2018-12-20T08:06:56.565Z,77.62
2018-12-20T08:09:25.040Z,77.29
2018-12-20T08:11:53.550Z,76.86
2018-12-20T08:14:22.097Z,77.13
2018-12-20T08:16:50.759Z,76.64
2018-12-20T08:19:19.285Z,77.49
2018-12-20T08:21:47.769Z,77.73
2018-12-20T08:24:16.894Z,77.71
2018-12-20T08:26:45.418Z,76.92
2018-12-20T08:29:14.817Z,76.76
2018-12-20T08:31:43.419Z,76.78
2018-12-20T08:34:11.987Z,77.41
2018-12-20T08:36:40.489Z,77.70
2018-12-20T08:39:09.282Z,77.73
2018-12-20T08:41:37.769Z,77.50
2018-12-20T08:44:06.294Z,77.44
2018-12-20T08:46:34.950Z,76.90
2018-12-20T08:49:03.537Z,76.73
2018-12-20T08:51:32.044Z,76.76
2018-12-20T08:54:00.539Z,76.97
2018-12-20T08:56:29.059Z,77.94
2018-12-20T08:58:57.555Z,76.46
2018-12-20T09:01:26.245Z,77.00
2018-12-20T09:03:54.941Z,77.05
2018-12-20T09:06:24.550Z,77.88
2018-12-20T09:08:55.011Z,77.33
2018-12-20T09:11:23.553Z,76.93
2018-12-20T09:13:52.719Z,76.91
2018-12-20T09:16:21.241Z,75.99
2018-12-20T09:18:49.871Z,76.64
2018-12-20T09:21:18.467Z,76.62
2018-12-20T09:23:47.083Z,75.63
2018-12-20T09:26:15.539Z,75.79
2018-12-20T09:28:44.066Z,76.25
2018-12-20T09:31:13.328Z,75.86
2018-12-20T09:33:41.853Z,76.00
2018-12-20T09:36:10.447Z,75.47
2018-12-20T09:38:38.994Z,75.30
2018-12-20T09:41:07.877Z,75.95
2018-12-20T09:43:36.373Z,75.74
2018-12-20T09:46:04.907Z,76.27
2018-12-20T09:48:33.599Z,75.75
2018-12-20T09:51:02.173Z,75.84
2018-12-20T09:53:30.794Z,75.22
2018-12-20T09:55:59.418Z,75.74
2018-12-20T09:58:27.990Z,74.67
2018-12-20T10:00:57.112Z,75.40
2018-12-20T10:03:25.619Z,75.65
2018-12-20T10:05:54.299Z,75.47
2018-12-20T10:08:22.795Z,75.57
2018-12-20T10:10:51.488Z,75.24
2018-12-20T10:13:20.159Z,75.61
2018-12-20T10:15:48.646Z,75.59
2018-12-20T10:18:17.171Z,75.02
2018-12-20T10:20:45.738Z,75.01
2018-12-20T10:23:14.516Z,74.78
2018-12-20T10:25:43.026Z,75.31
2018-12-20T10:28:11.590Z,74.15
2018-12-20T10:30:40.109Z,74.64
2018-12-20T10:33:08.702Z,74.57
2018-12-20T10:35:37.163Z,74.22
2018-12-20T10:38:05.636Z,74.13
2018-12-20T10:40:35.162Z,74.53
2018-12-20T10:43:03.691Z,73.41
2018-12-20T10:45:32.787Z,72.72
2018-12-20T10:48:01.662Z,72.80
2018-12-20T10:50:30.257Z,71.70
2018-12-20T10:52:59.722Z,72.50
2018-12-20T10:55:28.775Z,72.37
2018-12-20T10:57:57.270Z,72.43
2018-12-20T11:00:25.737Z,71.88
2018-12-20T11:03:00.699Z,72.25
2018-12-20T11:05:34.626Z,71.41
2018-12-20T11:08:08.513Z,71.22
2018-12-20T11:10:37.700Z,72.56
2018-12-20T11:13:13.230Z,72.58
2018-12-20T11:15:41.831Z,72.59
2018-12-20T11:18:10.406Z,72.98
2018-12-20T11:20:39.393Z,72.46
2018-12-20T11:23:08.158Z,71.60
2018-12-20T11:25:36.990Z,70.89
2018-12-20T11:28:08.215Z,71.82
2018-12-20T11:30:37.829Z,71.50
2018-12-20T11:33:07.863Z,71.37
2018-12-20T11:35:36.353Z,72.14
2018-12-20T11:38:04.847Z,71.79
2018-12-20T11:40:33.559Z,73.31
2018-12-20T11:43:02.405Z,71.84
2018-12-20T11:45:30.851Z,72.18
2018-12-20T11:48:00.574Z,72.59
2018-12-20T11:50:31.132Z,71.34
2018-12-20T11:53:00.833Z,70.50
2018-12-20T11:55:29.442Z,69.95
2018-12-20T11:57:57.901Z,67.81
2018-12-20T12:00:26.370Z,68.40
2018-12-20T12:02:55.053Z,68.35
2018-12-20T12:05:23.522Z,67.10
2018-12-20T12:07:52.042Z,67.89
2018-12-20T12:10:20.583Z,67.39
2018-12-20T12:12:49.055Z,68.28
2018-12-20T12:15:17.560Z,68.32
2018-12-20T12:17:54.031Z,69.85
2018-12-20T12:20:17.042Z,68.58
2018-12-20T12:22:45.494Z,68.93
2018-12-20T12:25:14.097Z,69.76
2018-12-20T12:27:42.667Z,70.05
2018-12-20T12:30:11.311Z,69.96
2018-12-20T12:32:40.003Z,69.98
2018-12-20T12:35:08.520Z,69.83
2018-12-20T12:37:36.994Z,69.93
2018-12-20T12:40:06.529Z,70.14
2018-12-20T12:42:35.042Z,69.60
2018-12-20T12:45:03.723Z,69.93
2018-12-20T12:48:04.120Z,69.78
2018-12-20T12:50:32.837Z,70.41
2018-12-20T12:53:01.391Z,70.08
2018-12-20T12:55:29.964Z,70.30
2018-12-20T12:58:04.655Z,70.27
2018-12-20T13:00:29.166Z,69.85
2018-12-20T13:02:57.655Z,70.93
2018-12-20T13:05:26.116Z,70.36
2018-12-20T13:07:54.841Z,70.16
2018-12-20T13:10:23.857Z,69.13
2018-12-20T13:12:52.432Z,69.68
2018-12-20T13:15:20.938Z,70.42
2018-12-20T13:17:49.402Z,70.07
2018-12-20T13:20:17.915Z,70.47
2018-12-20T13:22:46.502Z,70.62
2018-12-20T13:25:15.095Z,70.77
2018-12-20T13:27:43.704Z,70.70
2018-12-20T13:30:13.211Z,71.44
2018-12-20T13:32:41.687Z,71.08
2018-12-20T13:35:10.307Z,71.95
2018-12-20T13:37:39.757Z,71.30
2018-12-20T13:40:09.048Z,70.96
2018-12-20T13:42:37.530Z,71.59
2018-12-20T13:45:06.505Z,71.61
2018-12-20T13:47:35.170Z,71.45
2018-12-20T13:50:03.818Z,71.79
2018-12-20T13:52:33.889Z,71.92
2018-12-20T13:55:02.483Z,71.68
2018-12-20T13:57:30.965Z,71.76
2018-12-20T13:59:59.510Z,72.06
2018-12-20T14:02:28.095Z,72.44
2018-12-20T14:04:56.783Z,71.74
2018-12-20T14:07:25.273Z,72.90
2018-12-20T14:09:54.358Z,72.90
2018-12-20T14:12:22.817Z,72.28
2018-12-20T14:14:51.270Z,73.09
2018-12-20T14:17:19.755Z,73.28
2018-12-20T14:19:48.238Z,74.02
2018-12-20T14:22:16.842Z,74.51
2018-12-20T14:24:45.297Z,74.68
2018-12-20T14:27:13.881Z,74.45
2018-12-20T14:29:42.385Z,75.13
2018-12-20T14:32:11.018Z,75.99
2018-12-20T14:34:39.549Z,76.50
2018-12-20T14:37:08.014Z,77.12
2018-12-20T14:39:37.261Z,77.42
2018-12-20T14:42:05.741Z,77.02
2018-12-20T14:44:34.612Z,76.85
2018-12-20T14:47:03.097Z,77.29
2018-12-20T14:49:31.615Z,76.48
2018-12-20T14:52:00.108Z,76.01
2018-12-20T14:54:28.662Z,76.37
2018-12-20T14:56:57.182Z,76.08
2018-12-20T14:59:27.577Z,76.77
2018-12-20T15:01:57.086Z,77.22
2018-12-20T15:04:25.880Z,76.73
2018-12-20T15:06:54.440Z,77.08
2018-12-20T15:09:23.073Z,76.22
2018-12-20T15:11:51.592Z,75.75
2018-12-20T15:14:20.193Z,76.99
2018-12-20T15:16:48.784Z,76.47
2018-12-20T15:19:17.482Z,76.29
2018-12-20T15:21:46.037Z,76.46
2018-12-20T15:24:15.171Z,75.94
2018-12-20T15:26:43.666Z,75.84
2018-12-20T15:29:12.146Z,76.24
2018-12-20T15:31:40.690Z,76.52
2018-12-20T15:34:09.155Z,76.62
2018-12-20T15:36:37.706Z,76.60
2018-12-20T15:39:07.881Z,76.85
2018-12-20T15:41:37.039Z,76.78
2018-12-20T15:44:05.508Z,76.64
2018-12-20T15:46:34.121Z,76.65
2018-12-20T15:49:03.994Z,77.00
2018-12-20T15:51:33.827Z,77.37
2018-12-20T15:54:02.395Z,76.50
2018-12-20T15:56:30.874Z,76.68
2018-12-20T15:58:59.438Z,76.65
2018-12-20T16:01:27.959Z,77.28
2018-12-20T16:03:56.521Z,76.43
2018-12-20T16:06:25.026Z,76.86
2018-12-20T16:08:53.594Z,77.68
2018-12-20T16:11:22.106Z,76.67
2018-12-20T16:13:50.534Z,75.87
2018-12-20T16:16:19.747Z,76.09
2018-12-20T16:18:48.261Z,76.17
2018-12-20T16:21:16.758Z,76.82
2018-12-20T16:23:45.207Z,75.95
2018-12-20T16:26:13.681Z,75.98
2018-12-20T16:28:42.237Z,76.58
2018-12-20T16:31:11.349Z,76.07
2018-12-20T16:33:39.802Z,76.01
2018-12-20T16:36:08.456Z,75.90
2018-12-20T16:38:37.009Z,76.50
2018-12-20T16:41:05.579Z,75.52
2018-12-20T16:43:34.139Z,76.21
2018-12-20T16:46:02.609Z,75.71
2018-12-20T16:48:31.215Z,75.47
2018-12-20T16:50:59.689Z,75.59
2018-12-20T16:53:28.202Z,75.74
2018-12-20T16:55:56.774Z,75.97
2018-12-20T16:58:26.329Z,75.64
2018-12-20T17:00:54.816Z,76.44
2018-12-20T17:03:23.367Z,76.41
2018-12-20T17:05:51.843Z,74.91
2018-12-20T17:08:20.340Z,75.36
2018-12-20T17:10:48.833Z,74.10
2018-12-20T17:13:17.306Z,74.98
2018-12-20T17:15:45.830Z,73.93
2018-12-20T17:18:14.325Z,74.99
2018-12-20T17:20:42.830Z,74.03
2018-12-20T17:23:11.310Z,75.49
2018-12-20T17:25:39.808Z,74.03
2018-12-20T17:28:09.006Z,74.43
2018-12-20T17:30:37.550Z,74.20
2018-12-20T17:33:06.017Z,74.32
2018-12-20T17:35:34.514Z,74.07
2018-12-20T17:38:02.999Z,73.72
2018-12-20T17:40:31.483Z,73.89
2018-12-20T17:43:00.178Z,74.56
2018-12-20T17:45:29.041Z,73.98
2018-12-20T17:47:57.496Z,74.05
2018-12-20T17:50:26.063Z,74.09
2018-12-20T17:52:54.525Z,74.17
2018-12-20T17:55:23.039Z,74.16
2018-12-20T17:57:51.519Z,74.50
2018-12-20T18:00:20.047Z,74.33
2018-12-20T18:02:48.498Z,74.95
2018-12-20T18:05:16.986Z,74.68
2018-12-20T18:07:45.457Z,74.17
2018-12-20T18:10:14.178Z,74.80
2018-12-20T18:12:42.725Z,74.89
2018-12-20T18:15:12.390Z,74.74
2018-12-20T18:17:40.925Z,74.51
2018-12-20T18:20:11.376Z,74.91
2018-12-20T18:22:40.714Z,74.26
2018-12-20T18:25:09.225Z,74.99
2018-12-20T18:27:37.753Z,74.53
2018-12-20T18:30:09.643Z,74.33
2018-12-20T18:32:38.209Z,73.94
2018-12-20T18:35:07.351Z,73.95
2018-12-20T18:37:35.874Z,73.19
2018-12-20T18:40:05.202Z,73.68
2018-12-20T18:42:33.655Z,73.41
2018-12-20T18:45:02.187Z,73.09
2018-12-20T18:47:30.742Z,73.03
2018-12-20T18:49:59.234Z,73.26
2018-12-20T18:52:28.628Z,74.01
2018-12-20T18:54:57.277Z,74.36
2018-12-20T18:57:25.799Z,73.50
2018-12-20T18:59:54.394Z,73.85
2018-12-20T19:02:23.986Z,74.22
2018-12-20T19:04:52.478Z,73.75
2018-12-20T19:07:21.407Z,73.45
2018-12-20T19:09:52.225Z,74.02
2018-12-20T19:12:25.331Z,74.10
2018-12-20T19:14:54.872Z,74.72
2018-12-20T19:17:23.434Z,74.97
2018-12-20T19:19:56.563Z,73.58
2018-12-20T19:22:23.413Z,73.38
2018-12-20T19:24:52.086Z,72.95
2018-12-20T19:27:20.566Z,73.04
2018-12-20T19:29:49.779Z,73.46
2018-12-20T19:32:18.360Z,73.19
2018-12-20T19:34:47.159Z,73.05
2018-12-20T19:37:15.676Z,72.12
2018-12-20T19:39:45.404Z,72.77
2018-12-20T19:42:16.415Z,72.03
2018-12-20T19:44:44.902Z,72.89
2018-12-20T19:47:13.453Z,72.14
2018-12-20T19:49:42.772Z,71.86
2018-12-20T19:52:11.243Z,72.21
2018-12-20T19:54:47.791Z,72.86
2018-12-20T19:57:10.330Z,72.67
2018-12-20T19:59:39.024Z,72.34
2018-12-20T20:02:07.653Z,72.20
2018-12-20T20:04:36.139Z,71.97
2018-12-20T20:07:04.798Z,72.13
2018-12-20T20:09:33.287Z,71.40
2018-12-20T20:12:01.801Z,71.35
2018-12-20T20:14:30.302Z,71.03
2018-12-20T20:16:58.982Z,71.28
2018-12-20T20:19:27.506Z,70.96
2018-12-20T20:21:55.966Z,71.02
2018-12-20T20:24:24.496Z,70.81
2018-12-20T20:26:53.162Z,70.47
2018-12-20T20:29:22.120Z,71.22
2018-12-20T20:31:50.971Z,71.11
2018-12-20T20:34:19.902Z,70.94
2018-12-20T20:36:48.691Z,71.05
2018-12-20T20:39:17.202Z,71.14
2018-12-20T20:41:48.442Z,71.36
2018-12-20T20:44:16.978Z,70.63
2018-12-20T20:46:45.477Z,70.81
2018-12-20T20:49:14.804Z,70.63
2018-12-20T20:51:44.365Z,71.20
2018-12-20T20:54:13.524Z,70.95
2018-12-20T20:56:42.318Z,71.13
2018-12-20T20:59:11.086Z,71.13
2018-12-20T21:01:39.580Z,70.57
2018-12-20T21:04:08.942Z,70.49
2018-12-20T21:06:37.579Z,70.60
2018-12-20T21:09:08.164Z,71.54
2018-12-20T21:11:36.625Z,71.65
2018-12-20T21:14:05.483Z,71.38
2018-12-20T21:16:33.994Z,71.40
2018-12-20T21:19:03.534Z,71.06
2018-12-20T21:21:32.608Z,70.56
2018-12-20T21:24:01.608Z,70.66
2018-12-20T21:26:30.401Z,70.69
2018-12-20T21:28:58.881Z,70.67
2018-12-20T21:31:28.105Z,70.45
2018-12-20T21:33:56.702Z,70.97
2018-12-20T21:36:25.530Z,71.16
2018-12-20T21:38:54.653Z,72.05
2018-12-20T21:41:23.212Z,70.86
2018-12-20T21:43:52.386Z,70.86
2018-12-20T21:46:21.485Z,70.64
2018-12-20T21:48:50.034Z,71.45
2018-12-20T21:51:19.254Z,70.94
2018-12-20T21:53:54.854Z,71.35
2018-12-20T21:56:18.998Z,71.90
2018-12-20T21:58:48.357Z,71.68
2018-12-20T22:01:16.957Z,71.97
2018-12-20T22:03:45.527Z,71.78
2018-12-20T22:06:14.274Z,71.87
2018-12-20T22:08:42.825Z,71.85
2018-12-20T22:11:11.692Z,71.72
2018-12-20T22:13:40.854Z,71.17
2018-12-20T22:16:09.647Z,71.32
2018-12-20T22:18:38.669Z,71.68
2018-12-20T22:21:07.339Z,71.32
2018-12-20T22:23:35.852Z,71.54
2018-12-20T22:26:04.362Z,71.33
2018-12-20T22:28:32.891Z,71.64
2018-12-20T22:31:01.382Z,71.34
2018-12-20T22:33:30.183Z,71.73
2018-12-20T22:35:58.802Z,71.17
2018-12-20T22:38:27.277Z,71.59
2018-12-20T22:40:55.865Z,71.73
2018-12-20T22:43:24.673Z,71.40
2018-12-20T22:45:53.134Z,71.94
2018-12-20T22:48:21.629Z,71.24
2018-12-20T22:50:55.898Z,71.11
2018-12-20T22:53:20.675Z,71.42
2018-12-20T22:55:49.397Z,71.35
2018-12-20T22:58:18.313Z,72.22
2018-12-20T23:00:54.112Z,71.92
2018-12-20T23:03:23.001Z,71.68
2018-12-20T23:05:51.570Z,71.57
2018-12-20T23:08:20.544Z,71.64
2018-12-20T23:10:49.001Z,71.18
2018-12-20T23:13:17.929Z,72.12
2018-12-20T23:15:46.414Z,71.81
2018-12-20T23:18:15.230Z,71.80
2018-12-20T23:20:43.702Z,71.79
2018-12-20T23:23:12.202Z,73.08
2018-12-20T23:25:40.802Z,73.26
2018-12-20T23:28:09.705Z,73.98
2018-12-20T23:30:38.174Z,73.27
2018-12-20T23:33:06.662Z,73.80
2018-12-20T23:35:35.110Z,74.01
2018-12-20T23:38:03.629Z,74.02
2018-12-20T23:40:32.113Z,74.14
2018-12-20T23:43:00.622Z,74.02
2018-12-20T23:45:29.076Z,74.07
2018-12-20T23:47:57.544Z,74.42
2018-12-20T23:50:26.029Z,73.79
2018-12-20T23:52:54.526Z,73.55
2018-12-20T23:55:23.770Z,73.85
2018-12-20T23:57:52.269Z,73.26
